sensor_id;sensor_type;location;lat;lon;timestamp;P1;durP1;ratioP1;P2;durP2;ratioP2
20084;SDS011;10202;48.474;9.138;2023-07-22T00:00:19;4.53;;;1.73;;
20084;SDS011;10202;48.474;9.138;2023-07-22T00:02:49;5.93;;;1.92;;
20084;SDS011;10202;48.474;9.138;2023-07-22T00:05:15;2.92;;;1.80;;
20084;SDS011;10202;48.474;9.138;2023-07-22T00:07:41;4.57;;;1.80;;
20084;SDS011;10202;48.474;9.138;2023-07-22T00:10:11;2.78;;;1.90;;
20084;SDS011;10202;48.474;9.138;2023-07-22T00:12:37;4.07;;;2.10;;
20084;SDS011;10202;48.474;9.138;2023-07-22T00:15:02;2.28;;;1.80;;
20084;SDS011;10202;48.474;9.138;2023-07-22T00:17:33;3.45;;;1.90;;
20084;SDS011;10202;48.474;9.138;2023-07-22T00:20:01;3.08;;;1.98;;
20084;SDS011;10202;48.474;9.138;2023-07-22T00:22:31;3.08;;;2.05;;
20084;SDS011;10202;48.474;9.138;2023-07-22T00:24:59;3.67;;;2.10;;
20084;SDS011;10202;48.474;9.138;2023-07-22T00:27:27;4.28;;;2.22;;
20084;SDS011;10202;48.474;9.138;2023-07-22T00:29:57;3.38;;;1.90;;
20084;SDS011;10202;48.474;9.138;2023-07-22T00:32:28;2.35;;;1.90;;
20084;SDS011;10202;48.474;9.138;2023-07-22T00:34:56;2.78;;;1.83;;
20084;SDS011;10202;48.474;9.138;2023-07-22T00:37:23;4.82;;;1.98;;
20084;SDS011;10202;48.474;9.138;2023-07-22T00:39:51;10.90;;;2.10;;
20084;SDS011;10202;48.474;9.138;2023-07-22T00:42:17;3.33;;;2.10;;
20084;SDS011;10202;48.474;9.138;2023-07-22T00:44:46;5.20;;;2.25;;
20084;SDS011;10202;48.474;9.138;2023-07-22T00:47:14;2.30;;;1.90;;
20084;SDS011;10202;48.474;9.138;2023-07-22T00:49:47;3.22;;;2.40;;
20084;SDS011;10202;48.474;9.138;2023-07-22T00:52:17;3.20;;;2.20;;
20084;SDS011;10202;48.474;9.138;2023-07-22T00:54:45;3.10;;;2.13;;
20084;SDS011;10202;48.474;9.138;2023-07-22T00:57:15;2.63;;;2.00;;
20084;SDS011;10202;48.474;9.138;2023-07-22T00:59:45;3.33;;;2.25;;
20084;SDS011;10202;48.474;9.138;2023-07-22T01:02:11;2.95;;;2.38;;
20084;SDS011;10202;48.474;9.138;2023-07-22T01:04:39;3.08;;;2.08;;
20084;SDS011;10202;48.474;9.138;2023-07-22T01:07:10;3.20;;;2.40;;
20084;SDS011;10202;48.474;9.138;2023-07-22T01:09:40;4.22;;;1.75;;
20084;SDS011;10202;48.474;9.138;2023-07-22T01:12:08;4.47;;;2.10;;
20084;SDS011;10202;48.474;9.138;2023-07-22T01:14:37;4.30;;;1.92;;
20084;SDS011;10202;48.474;9.138;2023-07-22T01:17:10;3.65;;;2.15;;
20084;SDS011;10202;48.474;9.138;2023-07-22T01:19:36;4.63;;;2.05;;
20084;SDS011;10202;48.474;9.138;2023-07-22T01:22:04;10.05;;;2.10;;
20084;SDS011;10202;48.474;9.138;2023-07-22T01:24:36;3.35;;;1.90;;
20084;SDS011;10202;48.474;9.138;2023-07-22T01:27:04;5.15;;;2.13;;
20084;SDS011;10202;48.474;9.138;2023-07-22T01:29:37;3.10;;;2.10;;
20084;SDS011;10202;48.474;9.138;2023-07-22T01:32:06;2.53;;;1.92;;
20084;SDS011;10202;48.474;9.138;2023-07-22T01:34:34;2.45;;;2.03;;
20084;SDS011;10202;48.474;9.138;2023-07-22T01:37:02;1.98;;;1.77;;
20084;SDS011;10202;48.474;9.138;2023-07-22T01:39:32;6.32;;;2.00;;
20084;SDS011;10202;48.474;9.138;2023-07-22T01:41:57;2.60;;;1.67;;
20084;SDS011;10202;48.474;9.138;2023-07-22T01:44:26;2.10;;;1.65;;
20084;SDS011;10202;48.474;9.138;2023-07-22T01:46:51;2.35;;;1.80;;
20084;SDS011;10202;48.474;9.138;2023-07-22T01:49:19;3.92;;;1.75;;
20084;SDS011;10202;48.474;9.138;2023-07-22T01:51:47;3.28;;;2.10;;
20084;SDS011;10202;48.474;9.138;2023-07-22T01:54:13;2.60;;;1.90;;
20084;SDS011;10202;48.474;9.138;2023-07-22T01:56:40;2.30;;;1.90;;
20084;SDS011;10202;48.474;9.138;2023-07-22T01:59:06;2.17;;;1.60;;
20084;SDS011;10202;48.474;9.138;2023-07-22T02:01:32;2.25;;;1.63;;
20084;SDS011;10202;48.474;9.138;2023-07-22T02:03:58;4.80;;;1.88;;
20084;SDS011;10202;48.474;9.138;2023-07-22T02:06:26;2.15;;;1.88;;
20084;SDS011;10202;48.474;9.138;2023-07-22T02:08:55;3.17;;;2.15;;
20084;SDS011;10202;48.474;9.138;2023-07-22T02:11:25;3.30;;;1.90;;
20084;SDS011;10202;48.474;9.138;2023-07-22T02:13:55;4.57;;;2.25;;
20084;SDS011;10202;48.474;9.138;2023-07-22T02:16:21;2.60;;;1.95;;
20084;SDS011;10202;48.474;9.138;2023-07-22T02:18:46;5.93;;;2.22;;
20084;SDS011;10202;48.474;9.138;2023-07-22T02:21:17;9.55;;;2.50;;
20084;SDS011;10202;48.474;9.138;2023-07-22T02:23:43;6.30;;;2.35;;
20084;SDS011;10202;48.474;9.138;2023-07-22T02:26:10;3.28;;;1.88;;
20084;SDS011;10202;48.474;9.138;2023-07-22T02:28:38;4.57;;;1.95;;
20084;SDS011;10202;48.474;9.138;2023-07-22T02:31:06;3.58;;;2.00;;
20084;SDS011;10202;48.474;9.138;2023-07-22T02:33:34;2.80;;;1.77;;
20084;SDS011;10202;48.474;9.138;2023-07-22T02:35:59;4.40;;;2.13;;
20084;SDS011;10202;48.474;9.138;2023-07-22T02:38:27;5.28;;;2.00;;
20084;SDS011;10202;48.474;9.138;2023-07-22T02:41:01;3.80;;;1.95;;
20084;SDS011;10202;48.474;9.138;2023-07-22T02:43:33;2.35;;;1.83;;
20084;SDS011;10202;48.474;9.138;2023-07-22T02:46:03;4.13;;;1.90;;
20084;SDS011;10202;48.474;9.138;2023-07-22T02:48:33;2.38;;;1.50;;
20084;SDS011;10202;48.474;9.138;2023-07-22T02:51:05;3.77;;;1.90;;
20084;SDS011;10202;48.474;9.138;2023-07-22T02:53:37;1.98;;;1.75;;
20084;SDS011;10202;48.474;9.138;2023-07-22T02:56:03;2.53;;;1.70;;
20084;SDS011;10202;48.474;9.138;2023-07-22T02:58:31;35.90;;;2.50;;
20084;SDS011;10202;48.474;9.138;2023-07-22T03:00:58;9.43;;;2.50;;
20084;SDS011;10202;48.474;9.138;2023-07-22T03:03:38;4.20;;;2.00;;
20084;SDS011;10202;48.474;9.138;2023-07-22T03:06:05;37.08;;;3.13;;
20084;SDS011;10202;48.474;9.138;2023-07-22T03:08:30;3.05;;;1.85;;
20084;SDS011;10202;48.474;9.138;2023-07-22T03:10:59;2.63;;;1.75;;
20084;SDS011;10202;48.474;9.138;2023-07-22T03:13:24;2.22;;;2.03;;
20084;SDS011;10202;48.474;9.138;2023-07-22T03:15:57;3.63;;;2.42;;
20084;SDS011;10202;48.474;9.138;2023-07-22T03:18:23;5.82;;;2.17;;
20084;SDS011;10202;48.474;9.138;2023-07-22T03:20:49;4.00;;;2.25;;
20084;SDS011;10202;48.474;9.138;2023-07-22T03:23:16;2.83;;;2.05;;
20084;SDS011;10202;48.474;9.138;2023-07-22T03:25:47;3.95;;;2.22;;
20084;SDS011;10202;48.474;9.138;2023-07-22T03:28:13;2.65;;;1.80;;
20084;SDS011;10202;48.474;9.138;2023-07-22T03:30:41;4.47;;;1.95;;
20084;SDS011;10202;48.474;9.138;2023-07-22T03:33:06;2.67;;;1.73;;
20084;SDS011;10202;48.474;9.138;2023-07-22T03:35:37;2.65;;;1.88;;
20084;SDS011;10202;48.474;9.138;2023-07-22T03:38:05;2.50;;;1.85;;
20084;SDS011;10202;48.474;9.138;2023-07-22T03:40:30;7.07;;;1.67;;
20084;SDS011;10202;48.474;9.138;2023-07-22T03:42:56;14.30;;;2.53;;
20084;SDS011;10202;48.474;9.138;2023-07-22T03:45:23;2.88;;;2.00;;
20084;SDS011;10202;48.474;9.138;2023-07-22T03:47:56;4.55;;;2.38;;
20084;SDS011;10202;48.474;9.138;2023-07-22T03:50:26;2.17;;;1.70;;
20084;SDS011;10202;48.474;9.138;2023-07-22T03:52:58;6.03;;;1.90;;
20084;SDS011;10202;48.474;9.138;2023-07-22T03:55:24;3.53;;;1.88;;
20084;SDS011;10202;48.474;9.138;2023-07-22T03:57:49;3.83;;;1.98;;
20084;SDS011;10202;48.474;9.138;2023-07-22T04:00:15;2.50;;;1.88;;
20084;SDS011;10202;48.474;9.138;2023-07-22T04:02:41;6.80;;;1.90;;
20084;SDS011;10202;48.474;9.138;2023-07-22T04:05:07;6.88;;;2.00;;
20084;SDS011;10202;48.474;9.138;2023-07-22T04:07:36;3.22;;;1.70;;
20084;SDS011;10202;48.474;9.138;2023-07-22T04:10:02;3.20;;;1.92;;
20084;SDS011;10202;48.474;9.138;2023-07-22T04:12:32;3.70;;;1.85;;
20084;SDS011;10202;48.474;9.138;2023-07-22T04:14:58;8.07;;;1.90;;
20084;SDS011;10202;48.474;9.138;2023-07-22T04:17:29;2.53;;;1.90;;
20084;SDS011;10202;48.474;9.138;2023-07-22T04:19:55;4.63;;;1.88;;
20084;SDS011;10202;48.474;9.138;2023-07-22T04:22:23;2.53;;;1.88;;
20084;SDS011;10202;48.474;9.138;2023-07-22T04:24:50;5.50;;;1.88;;
20084;SDS011;10202;48.474;9.138;2023-07-22T04:27:15;2.83;;;1.70;;
20084;SDS011;10202;48.474;9.138;2023-07-22T04:29:42;4.43;;;1.60;;
20084;SDS011;10202;48.474;9.138;2023-07-22T04:32:07;3.20;;;1.85;;
20084;SDS011;10202;48.474;9.138;2023-07-22T04:34:36;4.22;;;1.70;;
20084;SDS011;10202;48.474;9.138;2023-07-22T04:37:04;3.63;;;1.77;;
20084;SDS011;10202;48.474;9.138;2023-07-22T04:39:38;1.90;;;1.70;;
20084;SDS011;10202;48.474;9.138;2023-07-22T04:42:11;3.30;;;1.63;;
20084;SDS011;10202;48.474;9.138;2023-07-22T04:44:41;3.67;;;1.83;;
20084;SDS011;10202;48.474;9.138;2023-07-22T04:47:12;2.25;;;1.67;;
20084;SDS011;10202;48.474;9.138;2023-07-22T04:49:41;3.08;;;1.60;;
20084;SDS011;10202;48.474;9.138;2023-07-22T04:52:09;6.88;;;1.70;;
20084;SDS011;10202;48.474;9.138;2023-07-22T04:54:34;2.33;;;1.90;;
20084;SDS011;10202;48.474;9.138;2023-07-22T04:57:08;2.42;;;1.83;;
20084;SDS011;10202;48.474;9.138;2023-07-22T04:59:33;4.07;;;1.77;;
20084;SDS011;10202;48.474;9.138;2023-07-22T05:02:01;6.85;;;1.98;;
20084;SDS011;10202;48.474;9.138;2023-07-22T05:04:30;2.53;;;1.80;;
20084;SDS011;10202;48.474;9.138;2023-07-22T05:06:55;3.08;;;1.80;;
20084;SDS011;10202;48.474;9.138;2023-07-22T05:09:21;2.42;;;1.83;;
20084;SDS011;10202;48.474;9.138;2023-07-22T05:11:46;4.95;;;1.48;;
20084;SDS011;10202;48.474;9.138;2023-07-22T05:14:12;1.75;;;1.60;;
20084;SDS011;10202;48.474;9.138;2023-07-22T05:16:45;4.63;;;1.80;;
20084;SDS011;10202;48.474;9.138;2023-07-22T05:19:10;4.22;;;1.85;;
20084;SDS011;10202;48.474;9.138;2023-07-22T05:21:41;5.15;;;1.90;;
20084;SDS011;10202;48.474;9.138;2023-07-22T05:24:08;2.50;;;2.00;;
20084;SDS011;10202;48.474;9.138;2023-07-22T05:26:36;3.60;;;2.30;;
20084;SDS011;10202;48.474;9.138;2023-07-22T05:29:04;4.35;;;2.20;;
20084;SDS011;10202;48.474;9.138;2023-07-22T05:31:32;5.20;;;2.53;;
20084;SDS011;10202;48.474;9.138;2023-07-22T05:34:01;2.88;;;2.17;;
20084;SDS011;10202;48.474;9.138;2023-07-22T05:36:27;3.95;;;2.08;;
20084;SDS011;10202;48.474;9.138;2023-07-22T05:38:58;2.63;;;2.03;;
20084;SDS011;10202;48.474;9.138;2023-07-22T05:41:25;5.28;;;2.40;;
20084;SDS011;10202;48.474;9.138;2023-07-22T05:43:53;2.83;;;2.10;;
20084;SDS011;10202;48.474;9.138;2023-07-22T05:46:19;2.88;;;2.10;;
20084;SDS011;10202;48.474;9.138;2023-07-22T05:48:51;3.05;;;2.22;;
20084;SDS011;10202;48.474;9.138;2023-07-22T05:51:17;3.92;;;2.35;;
20084;SDS011;10202;48.474;9.138;2023-07-22T05:53:48;4.53;;;2.10;;
20084;SDS011;10202;48.474;9.138;2023-07-22T05:56:13;6.65;;;2.08;;
20084;SDS011;10202;48.474;9.138;2023-07-22T05:58:44;2.65;;;2.10;;
20084;SDS011;10202;48.474;9.138;2023-07-22T06:01:12;2.50;;;1.80;;
20084;SDS011;10202;48.474;9.138;2023-07-22T06:03:37;3.50;;;1.98;;
20084;SDS011;10202;48.474;9.138;2023-07-22T06:06:03;5.32;;;2.22;;
20084;SDS011;10202;48.474;9.138;2023-07-22T06:08:29;2.92;;;1.90;;
20084;SDS011;10202;48.474;9.138;2023-07-22T06:10:55;3.33;;;1.90;;
20084;SDS011;10202;48.474;9.138;2023-07-22T06:13:26;3.13;;;2.10;;
20084;SDS011;10202;48.474;9.138;2023-07-22T06:15:54;2.83;;;1.90;;
20084;SDS011;10202;48.474;9.138;2023-07-22T06:18:20;5.10;;;2.40;;
20084;SDS011;10202;48.474;9.138;2023-07-22T06:20:48;5.55;;;2.08;;
20084;SDS011;10202;48.474;9.138;2023-07-22T06:23:14;3.38;;;2.10;;
20084;SDS011;10202;48.474;9.138;2023-07-22T06:25:40;3.30;;;2.08;;
20084;SDS011;10202;48.474;9.138;2023-07-22T06:28:07;1.77;;;1.65;;
20084;SDS011;10202;48.474;9.138;2023-07-22T06:30:35;2.78;;;1.80;;
20084;SDS011;10202;48.474;9.138;2023-07-22T06:33:03;3.28;;;1.83;;
20084;SDS011;10202;48.474;9.138;2023-07-22T06:35:31;2.00;;;1.80;;
20084;SDS011;10202;48.474;9.138;2023-07-22T06:38:02;1.90;;;1.67;;
20084;SDS011;10202;48.474;9.138;2023-07-22T06:40:27;6.22;;;1.70;;
20084;SDS011;10202;48.474;9.138;2023-07-22T06:42:53;5.07;;;1.98;;
20084;SDS011;10202;48.474;9.138;2023-07-22T06:45:21;3.47;;;1.92;;
20084;SDS011;10202;48.474;9.138;2023-07-22T06:47:47;1.88;;;1.52;;
20084;SDS011;10202;48.474;9.138;2023-07-22T06:50:12;3.92;;;2.00;;
20084;SDS011;10202;48.474;9.138;2023-07-22T06:52:45;2.03;;;1.40;;
20084;SDS011;10202;48.474;9.138;2023-07-22T06:55:15;2.15;;;1.60;;
20084;SDS011;10202;48.474;9.138;2023-07-22T06:57:43;2.40;;;1.60;;
20084;SDS011;10202;48.474;9.138;2023-07-22T07:00:11;1.98;;;1.50;;
20084;SDS011;10202;48.474;9.138;2023-07-22T07:02:37;3.65;;;1.70;;
20084;SDS011;10202;48.474;9.138;2023-07-22T07:05:04;2.38;;;1.40;;
20084;SDS011;10202;48.474;9.138;2023-07-22T07:07:31;2.20;;;1.40;;
20084;SDS011;10202;48.474;9.138;2023-07-22T07:09:57;1.75;;;1.52;;
20084;SDS011;10202;48.474;9.138;2023-07-22T07:12:23;1.70;;;1.50;;
20084;SDS011;10202;48.474;9.138;2023-07-22T07:14:53;2.00;;;1.45;;
20084;SDS011;10202;48.474;9.138;2023-07-22T07:17:18;1.90;;;1.50;;
20084;SDS011;10202;48.474;9.138;2023-07-22T07:19:44;1.20;;;1.10;;
20084;SDS011;10202;48.474;9.138;2023-07-22T07:22:10;2.35;;;1.58;;
20084;SDS011;10202;48.474;9.138;2023-07-22T07:24:42;1.90;;;1.40;;
20084;SDS011;10202;48.474;9.138;2023-07-22T07:27:10;2.92;;;1.85;;
20084;SDS011;10202;48.474;9.138;2023-07-22T07:29:40;2.63;;;1.67;;
20084;SDS011;10202;48.474;9.138;2023-07-22T07:32:06;2.28;;;1.58;;
20084;SDS011;10202;48.474;9.138;2023-07-22T07:34:32;1.98;;;1.70;;
20084;SDS011;10202;48.474;9.138;2023-07-22T07:37:00;2.10;;;1.35;;
20084;SDS011;10202;48.474;9.138;2023-07-22T07:39:25;2.97;;;1.33;;
20084;SDS011;10202;48.474;9.138;2023-07-22T07:41:51;1.90;;;1.40;;
20084;SDS011;10202;48.474;9.138;2023-07-22T07:44:16;2.50;;;1.33;;
20084;SDS011;10202;48.474;9.138;2023-07-22T07:46:42;2.45;;;1.60;;
20084;SDS011;10202;48.474;9.138;2023-07-22T07:49:07;1.90;;;1.48;;
20084;SDS011;10202;48.474;9.138;2023-07-22T07:51:33;4.50;;;1.65;;
20084;SDS011;10202;48.474;9.138;2023-07-22T07:54:03;7.05;;;1.58;;
20084;SDS011;10202;48.474;9.138;2023-07-22T07:56:32;2.28;;;1.70;;
20084;SDS011;10202;48.474;9.138;2023-07-22T07:58:57;1.65;;;1.33;;
20084;SDS011;10202;48.474;9.138;2023-07-22T08:01:27;1.30;;;1.20;;
20084;SDS011;10202;48.474;9.138;2023-07-22T08:03:55;5.97;;;1.45;;
20084;SDS011;10202;48.474;9.138;2023-07-22T08:06:20;2.20;;;1.60;;
20084;SDS011;10202;48.474;9.138;2023-07-22T08:08:46;3.50;;;1.33;;
20084;SDS011;10202;48.474;9.138;2023-07-22T08:11:12;11.63;;;1.60;;
20084;SDS011;10202;48.474;9.138;2023-07-22T08:13:40;7.28;;;1.67;;
20084;SDS011;10202;48.474;9.138;2023-07-22T08:16:08;5.30;;;1.50;;
20084;SDS011;10202;48.474;9.138;2023-07-22T08:18:42;7.40;;;1.65;;
20084;SDS011;10202;48.474;9.138;2023-07-22T08:21:17;4.45;;;1.70;;
20084;SDS011;10202;48.474;9.138;2023-07-22T08:23:42;2.10;;;1.20;;
20084;SDS011;10202;48.474;9.138;2023-07-22T08:26:11;4.53;;;1.25;;
20084;SDS011;10202;48.474;9.138;2023-07-22T08:28:37;1.42;;;1.20;;
20084;SDS011;10202;48.474;9.138;2023-07-22T08:31:05;1.38;;;1.23;;
20084;SDS011;10202;48.474;9.138;2023-07-22T08:33:33;1.73;;;1.30;;
20084;SDS011;10202;48.474;9.138;2023-07-22T08:36:01;5.20;;;1.13;;
20084;SDS011;10202;48.474;9.138;2023-07-22T08:38:29;2.75;;;1.13;;
20084;SDS011;10202;48.474;9.138;2023-07-22T08:41:00;1.50;;;1.30;;
20084;SDS011;10202;48.474;9.138;2023-07-22T08:43:30;2.17;;;1.27;;
20084;SDS011;10202;48.474;9.138;2023-07-22T08:45:59;5.80;;;1.52;;
20084;SDS011;10202;48.474;9.138;2023-07-22T08:48:30;2.28;;;1.48;;
20084;SDS011;10202;48.474;9.138;2023-07-22T08:51:02;2.05;;;1.40;;
20084;SDS011;10202;48.474;9.138;2023-07-22T08:53:30;1.98;;;1.27;;
20084;SDS011;10202;48.474;9.138;2023-07-22T08:55:58;1.63;;;1.33;;
20084;SDS011;10202;48.474;9.138;2023-07-22T08:58:26;1.85;;;1.30;;
20084;SDS011;10202;48.474;9.138;2023-07-22T09:00:52;1.23;;;1.13;;
20084;SDS011;10202;48.474;9.138;2023-07-22T09:03:22;1.50;;;1.40;;
20084;SDS011;10202;48.474;9.138;2023-07-22T09:05:51;2.00;;;1.45;;
20084;SDS011;10202;48.474;9.138;2023-07-22T09:08:16;2.17;;;1.25;;
20084;SDS011;10202;48.474;9.138;2023-07-22T09:10:46;1.10;;;1.00;;
20084;SDS011;10202;48.474;9.138;2023-07-22T09:13:12;1.70;;;1.30;;
20084;SDS011;10202;48.474;9.138;2023-07-22T09:15:46;1.85;;;1.33;;
20084;SDS011;10202;48.474;9.138;2023-07-22T09:18:19;7.28;;;1.25;;
20084;SDS011;10202;48.474;9.138;2023-07-22T09:20:47;5.30;;;1.17;;
20084;SDS011;10202;48.474;9.138;2023-07-22T09:23:15;1.40;;;1.20;;
20084;SDS011;10202;48.474;9.138;2023-07-22T09:25:43;2.58;;;1.20;;
20084;SDS011;10202;48.474;9.138;2023-07-22T09:28:16;1.63;;;1.13;;
20084;SDS011;10202;48.474;9.138;2023-07-22T09:30:44;1.48;;;1.20;;
20084;SDS011;10202;48.474;9.138;2023-07-22T09:33:20;2.25;;;1.13;;
20084;SDS011;10202;48.474;9.138;2023-07-22T09:35:52;2.45;;;1.13;;
20084;SDS011;10202;48.474;9.138;2023-07-22T09:38:25;2.08;;;1.23;;
20084;SDS011;10202;48.474;9.138;2023-07-22T09:40:53;1.88;;;1.30;;
20084;SDS011;10202;48.474;9.138;2023-07-22T09:43:22;1.20;;;1.10;;
20084;SDS011;10202;48.474;9.138;2023-07-22T09:45:51;2.25;;;1.20;;
20084;SDS011;10202;48.474;9.138;2023-07-22T09:48:20;1.20;;;1.10;;
20084;SDS011;10202;48.474;9.138;2023-07-22T09:50:56;1.52;;;1.17;;
20084;SDS011;10202;48.474;9.138;2023-07-22T09:53:24;1.45;;;1.10;;
20084;SDS011;10202;48.474;9.138;2023-07-22T09:55:55;1.67;;;1.25;;
20084;SDS011;10202;48.474;9.138;2023-07-22T09:58:35;9.32;;;2.25;;
20084;SDS011;10202;48.474;9.138;2023-07-22T10:01:01;2.80;;;1.85;;
20084;SDS011;10202;48.474;9.138;2023-07-22T10:03:28;1.40;;;1.30;;
20084;SDS011;10202;48.474;9.138;2023-07-22T10:05:58;1.35;;;1.25;;
20084;SDS011;10202;48.474;9.138;2023-07-22T10:08:29;2.63;;;1.10;;
20084;SDS011;10202;48.474;9.138;2023-07-22T10:11:00;3.63;;;1.48;;
20084;SDS011;10202;48.474;9.138;2023-07-22T10:13:37;2.38;;;1.35;;
20084;SDS011;10202;48.474;9.138;2023-07-22T10:16:03;1.73;;;1.40;;
20084;SDS011;10202;48.474;9.138;2023-07-22T10:18:30;2.13;;;1.10;;
20084;SDS011;10202;48.474;9.138;2023-07-22T10:21:02;1.67;;;1.35;;
20084;SDS011;10202;48.474;9.138;2023-07-22T10:23:27;3.40;;;1.30;;
20084;SDS011;10202;48.474;9.138;2023-07-22T10:26:02;1.58;;;1.35;;
20084;SDS011;10202;48.474;9.138;2023-07-22T10:28:33;1.35;;;1.00;;
20084;SDS011;10202;48.474;9.138;2023-07-22T10:31:03;1.67;;;1.23;;
20084;SDS011;10202;48.474;9.138;2023-07-22T10:33:34;2.40;;;1.38;;
20084;SDS011;10202;48.474;9.138;2023-07-22T10:36:06;1.88;;;1.25;;
20084;SDS011;10202;48.474;9.138;2023-07-22T10:38:37;3.92;;;1.30;;
20084;SDS011;10202;48.474;9.138;2023-07-22T10:41:14;4.57;;;1.42;;
20084;SDS011;10202;48.474;9.138;2023-07-22T10:43:56;1.38;;;1.25;;
20084;SDS011;10202;48.474;9.138;2023-07-22T10:49:11;1.67;;;1.35;;
20084;SDS011;10202;48.474;9.138;2023-07-22T10:51:47;1.20;;;1.10;;
20084;SDS011;10202;48.474;9.138;2023-07-22T10:54:14;3.53;;;1.25;;
20084;SDS011;10202;48.474;9.138;2023-07-22T10:56:57;2.55;;;1.30;;
20084;SDS011;10202;48.474;9.138;2023-07-22T10:59:26;4.43;;;1.25;;
20084;SDS011;10202;48.474;9.138;2023-07-22T11:01:53;3.30;;;1.40;;
20084;SDS011;10202;48.474;9.138;2023-07-22T11:04:23;1.65;;;1.40;;
20084;SDS011;10202;48.474;9.138;2023-07-22T11:06:56;3.28;;;1.55;;
20084;SDS011;10202;48.474;9.138;2023-07-22T11:11:56;2.88;;;1.60;;
20084;SDS011;10202;48.474;9.138;2023-07-22T11:17:03;2.55;;;1.25;;
20084;SDS011;10202;48.474;9.138;2023-07-22T11:19:38;3.60;;;1.50;;
20084;SDS011;10202;48.474;9.138;2023-07-22T11:22:07;2.42;;;1.65;;
20084;SDS011;10202;48.474;9.138;2023-07-22T11:24:33;3.47;;;1.83;;
20084;SDS011;10202;48.474;9.138;2023-07-22T11:27:02;1.73;;;1.33;;
20084;SDS011;10202;48.474;9.138;2023-07-22T11:29:33;2.33;;;1.70;;
20084;SDS011;10202;48.474;9.138;2023-07-22T11:32:02;2.70;;;1.95;;
20084;SDS011;10202;48.474;9.138;2023-07-22T11:34:29;6.22;;;1.60;;
20084;SDS011;10202;48.474;9.138;2023-07-22T11:36:59;3.58;;;1.80;;
20084;SDS011;10202;48.474;9.138;2023-07-22T11:39:27;1.83;;;1.38;;
20084;SDS011;10202;48.474;9.138;2023-07-22T11:41:56;2.63;;;1.67;;
20084;SDS011;10202;48.474;9.138;2023-07-22T11:44:29;1.95;;;1.38;;
20084;SDS011;10202;48.474;9.138;2023-07-22T11:47:02;1.45;;;1.35;;
20084;SDS011;10202;48.474;9.138;2023-07-22T11:49:31;3.60;;;1.75;;
20084;SDS011;10202;48.474;9.138;2023-07-22T11:52:17;2.67;;;1.60;;
20084;SDS011;10202;48.474;9.138;2023-07-22T11:54:43;3.40;;;1.52;;
20084;SDS011;10202;48.474;9.138;2023-07-22T11:57:19;2.67;;;1.60;;
20084;SDS011;10202;48.474;9.138;2023-07-22T11:59:48;2.13;;;1.70;;
20084;SDS011;10202;48.474;9.138;2023-07-22T12:02:17;2.15;;;1.58;;
20084;SDS011;10202;48.474;9.138;2023-07-22T12:07:30;3.25;;;1.80;;
20084;SDS011;10202;48.474;9.138;2023-07-22T12:10:00;3.22;;;2.17;;
20084;SDS011;10202;48.474;9.138;2023-07-22T12:12:35;3.90;;;2.47;;
20084;SDS011;10202;48.474;9.138;2023-07-22T12:17:48;4.28;;;1.60;;
20084;SDS011;10202;48.474;9.138;2023-07-22T12:20:29;2.13;;;1.88;;
20084;SDS011;10202;48.474;9.138;2023-07-22T12:23:01;5.40;;;1.80;;
20084;SDS011;10202;48.474;9.138;2023-07-22T12:25:27;2.97;;;2.13;;
20084;SDS011;10202;48.474;9.138;2023-07-22T12:27:55;2.90;;;1.63;;
20084;SDS011;10202;48.474;9.138;2023-07-22T12:30:23;2.78;;;2.08;;
20084;SDS011;10202;48.474;9.138;2023-07-22T12:32:49;1.58;;;1.48;;
20084;SDS011;10202;48.474;9.138;2023-07-22T12:35:15;5.00;;;1.95;;
20084;SDS011;10202;48.474;9.138;2023-07-22T12:37:41;3.80;;;1.85;;
20084;SDS011;10202;48.474;9.138;2023-07-22T12:40:11;2.00;;;1.80;;
20084;SDS011;10202;48.474;9.138;2023-07-22T12:42:39;2.22;;;1.67;;
20084;SDS011;10202;48.474;9.138;2023-07-22T12:45:10;2.10;;;1.70;;
20084;SDS011;10202;48.474;9.138;2023-07-22T12:47:38;5.95;;;1.83;;
20084;SDS011;10202;48.474;9.138;2023-07-22T12:50:04;3.05;;;2.00;;
20084;SDS011;10202;48.474;9.138;2023-07-22T12:52:32;2.17;;;1.63;;
20084;SDS011;10202;48.474;9.138;2023-07-22T12:54:58;2.75;;;1.90;;
20084;SDS011;10202;48.474;9.138;2023-07-22T12:57:28;2.42;;;1.98;;
20084;SDS011;10202;48.474;9.138;2023-07-22T12:59:59;2.38;;;1.75;;
20084;SDS011;10202;48.474;9.138;2023-07-22T13:02:24;1.60;;;1.50;;
20084;SDS011;10202;48.474;9.138;2023-07-22T13:04:53;2.30;;;1.73;;
20084;SDS011;10202;48.474;9.138;2023-07-22T13:07:21;2.38;;;1.70;;
20084;SDS011;10202;48.474;9.138;2023-07-22T13:09:50;3.45;;;1.70;;
20084;SDS011;10202;48.474;9.138;2023-07-22T13:12:23;5.55;;;2.25;;
20084;SDS011;10202;48.474;9.138;2023-07-22T13:14:51;8.32;;;2.03;;
20084;SDS011;10202;48.474;9.138;2023-07-22T13:17:22;2.83;;;2.10;;
20084;SDS011;10202;48.474;9.138;2023-07-22T13:19:57;2.30;;;1.77;;
20084;SDS011;10202;48.474;9.138;2023-07-22T13:22:32;2.25;;;1.95;;
20084;SDS011;10202;48.474;9.138;2023-07-22T13:25:00;3.35;;;1.80;;
20084;SDS011;10202;48.474;9.138;2023-07-22T13:27:26;1.95;;;1.75;;
20084;SDS011;10202;48.474;9.138;2023-07-22T13:29:51;2.50;;;1.88;;
20084;SDS011;10202;48.474;9.138;2023-07-22T13:32:22;3.92;;;1.98;;
20084;SDS011;10202;48.474;9.138;2023-07-22T13:34:48;5.40;;;2.00;;
20084;SDS011;10202;48.474;9.138;2023-07-22T13:37:18;2.22;;;1.80;;
20084;SDS011;10202;48.474;9.138;2023-07-22T13:39:49;2.47;;;2.08;;
20084;SDS011;10202;48.474;9.138;2023-07-22T13:42:17;4.65;;;2.13;;
20084;SDS011;10202;48.474;9.138;2023-07-22T13:44:47;4.53;;;2.00;;
20084;SDS011;10202;48.474;9.138;2023-07-22T13:47:15;2.80;;;2.05;;
20084;SDS011;10202;48.474;9.138;2023-07-22T13:49:42;2.92;;;2.08;;
20084;SDS011;10202;48.474;9.138;2023-07-22T13:52:10;3.75;;;2.20;;
20084;SDS011;10202;48.474;9.138;2023-07-22T13:54:41;4.30;;;2.10;;
20084;SDS011;10202;48.474;9.138;2023-07-22T13:57:13;6.63;;;2.30;;
20084;SDS011;10202;48.474;9.138;2023-07-22T13:59:41;3.42;;;2.50;;
20084;SDS011;10202;48.474;9.138;2023-07-22T14:02:09;4.10;;;2.38;;
20084;SDS011;10202;48.474;9.138;2023-07-22T14:04:37;7.82;;;2.58;;
20084;SDS011;10202;48.474;9.138;2023-07-22T14:07:05;6.53;;;2.72;;
20084;SDS011;10202;48.474;9.138;2023-07-22T14:09:33;4.22;;;2.28;;
20084;SDS011;10202;48.474;9.138;2023-07-22T14:11:59;2.78;;;2.10;;
20084;SDS011;10202;48.474;9.138;2023-07-22T14:14:24;3.03;;;2.05;;
20084;SDS011;10202;48.474;9.138;2023-07-22T14:16:55;4.32;;;2.33;;
20084;SDS011;10202;48.474;9.138;2023-07-22T14:19:26;3.38;;;2.38;;
20084;SDS011;10202;48.474;9.138;2023-07-22T14:21:53;6.15;;;2.40;;
20084;SDS011;10202;48.474;9.138;2023-07-22T14:24:23;5.53;;;2.63;;
20084;SDS011;10202;48.474;9.138;2023-07-22T14:26:54;3.45;;;2.33;;
20084;SDS011;10202;48.474;9.138;2023-07-22T14:29:24;3.45;;;2.38;;
20084;SDS011;10202;48.474;9.138;2023-07-22T14:31:54;2.88;;;2.15;;
20084;SDS011;10202;48.474;9.138;2023-07-22T14:34:23;3.30;;;2.15;;
20084;SDS011;10202;48.474;9.138;2023-07-22T14:36:51;6.10;;;2.50;;
20084;SDS011;10202;48.474;9.138;2023-07-22T14:39:21;8.93;;;2.80;;
20084;SDS011;10202;48.474;9.138;2023-07-22T14:41:47;4.18;;;2.42;;
20084;SDS011;10202;48.474;9.138;2023-07-22T14:44:12;5.93;;;2.60;;
20084;SDS011;10202;48.474;9.138;2023-07-22T14:46:42;5.18;;;2.88;;
20084;SDS011;10202;48.474;9.138;2023-07-22T14:49:08;5.43;;;2.33;;
20084;SDS011;10202;48.474;9.138;2023-07-22T14:51:36;3.00;;;2.30;;
20084;SDS011;10202;48.474;9.138;2023-07-22T14:54:01;6.22;;;2.60;;
20084;SDS011;10202;48.474;9.138;2023-07-22T14:56:30;2.63;;;2.15;;
20084;SDS011;10202;48.474;9.138;2023-07-22T14:58:55;4.65;;;2.38;;
20084;SDS011;10202;48.474;9.138;2023-07-22T15:01:21;3.95;;;2.70;;
20084;SDS011;10202;48.474;9.138;2023-07-22T15:03:47;5.40;;;2.78;;
20084;SDS011;10202;48.474;9.138;2023-07-22T15:06:13;4.05;;;2.50;;
20084;SDS011;10202;48.474;9.138;2023-07-22T15:08:43;4.28;;;2.28;;